Address 0x6f7507c5f813561fccba01bf2541b9338ff69249 3

Txn Hash Method
Block
From
To
Value [Txn Fee]
0xf3133d7bd6ba61a46d9d713faee02098811409e7bfd84e3f598b56d80121fdafCreate Decrease ...252846242023-01-22 21:24:1813 days 16 hrs ago0x6f7507c5f813561fccba01bf2541b9338ff69249OUT GMX: Position Router0.02 AVAX0.0094138335 29.5
0xa4df6a2546d5c4b98c1d300636ccc16bf8b11fdbc5b03251e17cf0b6208d5813Create Decrease ...251084982023-01-18 17:24:4117 days 20 hrs ago0x6f7507c5f813561fccba01bf2541b9338ff69249OUT GMX: Position Router0.02 AVAX0.0094134795 29.5
0x4a61932a13884d2c93232d8f3740ce6d45bd8c967976d9c43c2783120600d536Create Increase ...249134342023-01-14 3:11:4022 days 10 hrs ago0x6f7507c5f813561fccba01bf2541b9338ff69249OUT GMX: Position Router0.02 AVAX0.010967392 29.5
0x42d894e7eafdb6afc3508836439902ef5157422741ed05181081cbd2e5771ee5Create Increase ...249134062023-01-14 3:10:4722 days 10 hrs ago0x6f7507c5f813561fccba01bf2541b9338ff69249OUT GMX: Position Router0.02 AVAX0.010967392 29.5
0x9734f4a364d0ea2bbd165ee8247e05471a4b40631425a0f7c03258221038af37Create Increase ...249133702023-01-14 3:09:3622 days 10 hrs ago0x6f7507c5f813561fccba01bf2541b9338ff69249OUT GMX: Position Router0.02 AVAX0.012231585 29.5
0x30af346c2f59bae20faf9e5f05e7ef8cf0aed8b41a1f1247a2a1cf9dd28aa0970x5f575529249133382023-01-14 3:08:3022 days 10 hrs ago0x6f7507c5f813561fccba01bf2541b9338ff69249OUT 0x1a1ec25dc08e98e5e93f1104b5e5cdd298707d310 AVAX0.010986296437 27.203432
0x6a211649f3366355d17e51f917bfbbabd22f56664d08aa99e846666f85b4401fCreate Decrease ...249046382023-01-13 22:23:3922 days 15 hrs ago0x6f7507c5f813561fccba01bf2541b9338ff69249OUT GMX: Position Router0.02 AVAX0.0094131255 29.5
0xf613b68a6474898bfd8b49fedbb02615108c9db64f9bfa786770db2058e73cd1Create Increase ...249046182023-01-13 22:22:5922 days 15 hrs ago0x6f7507c5f813561fccba01bf2541b9338ff69249OUT GMX: Position Router0.02 AVAX0.010967392 29.5
0x166093ff8df072e42fad636036c74d73ca9b0defe7dec79a7f641ca1ad699511Create Increase ...248677932023-01-13 1:34:0223 days 12 hrs ago0x6f7507c5f813561fccba01bf2541b9338ff69249OUT GMX: Position Router0.02 AVAX0.012231231 29.5
0x77aed24ac245c1fc1481ca88f0c57aeb2325a6846d4d4a95fce96ee4a0ced001Create Increase ...248677752023-01-13 1:33:2623 days 12 hrs ago0x6f7507c5f813561fccba01bf2541b9338ff69249OUT GMX: Position Router0.02 AVAX0.010967392 29.5
0x8485a7bbe82fdd5f68b4563489f162f4b03b96452a998ff7eae283a56df6980dCreate Decrease ...248677492023-01-13 1:32:3423 days 12 hrs ago0x6f7507c5f813561fccba01bf2541b9338ff69249OUT GMX: Position Router0.02 AVAX0.0094138335 29.5
0x26426283437e4809d0de2cb8a508cd6e48bfcda9d2a73c6ec8762e2f6c82231fTransfer248474322023-01-12 14:11:1923 days 23 hrs ago0x6f7507c5f813561fccba01bf2541b9338ff69249OUTTether: USDT Token0 AVAX0.00167670965 27.425
0xe60829a9c473bbca86ca3bb9ab18039e371720835e793070d4a94b4d1d3a50b10x5f575529248473722023-01-12 14:09:2023 days 23 hrs ago0x6f7507c5f813561fccba01bf2541b9338ff69249OUT 0x1a1ec25dc08e98e5e93f1104b5e5cdd298707d310 AVAX0.008817849 27
0x8a68d552e5c92a1aec22641f18f0453f88bf7ce27d577e2db841747c34fbbc76Create Increase ...248459782023-01-12 13:24:0824 days 39 mins ago0x6f7507c5f813561fccba01bf2541b9338ff69249OUT GMX: Position Router0.02 AVAX0.012231585 29.5
0x040905e681353197b1cccfd7a13ef2f118a52de81a1cd1271cf34033693b6a15Create Increase ...248459712023-01-12 13:23:5424 days 39 mins ago0x6f7507c5f813561fccba01bf2541b9338ff69249OUT GMX: Position Router0.02 AVAX0.010967392 29.5
0xf3047157a73dd54c22a3cc77e8b55870377e564d8eb3bcb67b69b649ac0a960a0x5f575529248459442023-01-12 13:23:0124 days 40 mins ago0x6f7507c5f813561fccba01bf2541b9338ff69249OUT 0x1a1ec25dc08e98e5e93f1104b5e5cdd298707d310 AVAX0.042612666754 27.305205
0x870f50aaea7003928b8594cac6f525fe88c38101dd5d59f9246989d639a44b4dCreate Decrease ...248013322023-01-11 12:32:3525 days 1 hr ago0x6f7507c5f813561fccba01bf2541b9338ff69249OUT GMX: Position Router0.02 AVAX0.0094134795 29.5
0xc3abaed27159cf83a078caf68e33505c3dd4217e9b9b5b8d974e3843d037ed25Create Decrease ...248013272023-01-11 12:32:2525 days 1 hr ago0x6f7507c5f813561fccba01bf2541b9338ff69249OUT GMX: Position Router0.02 AVAX0.0094138335 29.5
0xf99d848578a95543d4ddd98304374855c320eaae1cc7dc731b187520d4918523Create Increase ...236905092022-12-16 2:03:5851 days 11 hrs ago0x6f7507c5f813561fccba01bf2541b9338ff69249OUT GMX: Position Router0.02 AVAX0.012231585 29.5
0xa775937b533e8136abe4e9b679664c17885caba63a3a0dafaaa384710b5d72ff0x5f575529235858662022-12-13 14:58:4653 days 23 hrs ago0x6f7507c5f813561fccba01bf2541b9338ff69249OUT 0x1a1ec25dc08e98e5e93f1104b5e5cdd298707d310 AVAX0.011775726 27
0x8bd08e5426faf04f9653b1c08ff1fa0770a5c17cecf6a0daa85edba3ec5dde3cCreate Decrease ...235858382022-12-13 14:57:4953 days 23 hrs ago0x6f7507c5f813561fccba01bf2541b9338ff69249OUT GMX: Position Router0.02 AVAX0.0094138335 29.5
0x090f544deeaf68ac93d094f1a9feffc403369d0565150efbddd9dd2b4c3ffaa0Create Increase ...230556552022-12-01 0:36:1566 days 13 hrs ago0x6f7507c5f813561fccba01bf2541b9338ff69249OUT GMX: Position Router0.02 AVAX0.009871644 29.5
0xc1bb3ab6613af662dadc88e17dcd2311543e7fbf7838cfb5db018bacc7d53b5b0x5f575529230553862022-12-01 0:27:1266 days 13 hrs ago0x6f7507c5f813561fccba01bf2541b9338ff69249OUT 0x1a1ec25dc08e98e5e93f1104b5e5cdd298707d310 AVAX0.016579998 27
0x50553e472f99a6553f099d2e717e18f65ad6800d9add495ec0d61cb9fe56ac0fCreate Increase ...230553572022-12-01 0:26:1366 days 13 hrs ago0x6f7507c5f813561fccba01bf2541b9338ff69249OUT GMX: Position Router0.02 AVAX0.012231231 29.5
0x59db93299b0473c661ea5a30e2cda48a679f7a33524b567e852032c86be9a42aCreate Decrease ...230553462022-12-01 0:25:5166 days 13 hrs ago0x6f7507c5f813561fccba01bf2541b9338ff69249OUT GMX: Position Router0.02 AVAX0.0094138335 29.5
[ Download CSV Export 
Latest 3 internal transactions
Parent Txn Hash Block From To Value
0x4e3248171ec49a9409aa74773a2e86e7e02c24bc026a83b57aa3f25ceb61ae0c190612842022-08-24 13:55:38165 days 7 mins ago 0xc590175e458b83680867afd273527ff58f74c02b0x6f7507c5f813561fccba01bf2541b9338ff692491.6670080084575243 AVAX
0x5b8b1f7906a2f51fec1c477340aadf875f34665a6a020f1f6b1e6a9c95187fed190606452022-08-24 13:34:14165 days 29 mins ago 0xc590175e458b83680867afd273527ff58f74c02b0x6f7507c5f813561fccba01bf2541b9338ff692492.141948628866002 AVAX
0x7b96a52c1b09ee3ffdb2dad27919b8abf5e48102e291152ced330ce6d8923363184197672022-08-09 13:32:49180 days 30 mins ago SushiSwap: Router0x6f7507c5f813561fccba01bf2541b9338ff692490.35621229679795172 AVAX
[ Download CSV Export 
Loading

Contract Name:
0

Compiler Version
0

Optimization Enabled:
0

Other Settings:
-NA-
Block Transaction Gas Used Reward
Age Block Fee Address BC Fee Address Voting Power Jailed Incoming
Block Uncle Number Difficulty Gas Used Reward
Loading
Make sure to use the "Vote Down" button for any spammy posts, and the "Vote Up" for interesting conversations.